sensor_id;sensor_type;location;lat;lon;timestamp;pressure;altitude;pressure_sealevel;temperature;humidity
71915;BME280;60387;49.994;14.660;2022-08-25T00:01:19;98068.97;;;20.59;70.91
71915;BME280;60387;49.994;14.660;2022-08-25T00:03:53;98071.34;;;20.61;70.42
71915;BME280;60387;49.994;14.660;2022-08-25T00:06:27;98072.16;;;20.61;70.63
71915;BME280;60387;49.994;14.660;2022-08-25T00:09:00;98066.91;;;20.56;70.51
71915;BME280;60387;49.994;14.660;2022-08-25T00:11:35;98070.72;;;20.52;70.46
71915;BME280;60387;49.994;14.660;2022-08-25T00:14:13;98068.34;;;20.50;70.60
71915;BME280;60387;49.994;14.660;2022-08-25T00:16:47;98067.44;;;20.46;70.11
71915;BME280;60387;49.994;14.660;2022-08-25T00:19:24;98069.69;;;20.41;70.17
71915;BME280;60387;49.994;14.660;2022-08-25T00:21:59;98068.88;;;20.40;70.39
71915;BME280;60387;49.994;14.660;2022-08-25T00:24:33;98064.09;;;20.37;70.72
71915;BME280;60387;49.994;14.660;2022-08-25T00:27:06;98064.09;;;20.37;70.29
71915;BME280;60387;49.994;14.660;2022-08-25T00:29:39;98062.50;;;20.36;70.66
71915;BME280;60387;49.994;14.660;2022-08-25T00:32:13;98051.75;;;20.31;70.82
71915;BME280;60387;49.994;14.660;2022-08-25T00:34:46;98052.19;;;20.33;70.95
71915;BME280;60387;49.994;14.660;2022-08-25T00:37:19;98053.81;;;20.34;71.13
71915;BME280;60387;49.994;14.660;2022-08-25T00:39:53;98041.88;;;20.30;70.88
71915;BME280;60387;49.994;14.660;2022-08-25T00:42:26;98050.63;;;20.32;70.73
71915;BME280;60387;49.994;14.660;2022-08-25T00:44:59;98053.72;;;20.31;70.62
71915;BME280;60387;49.994;14.660;2022-08-25T00:47:33;98048.13;;;20.27;70.95
71915;BME280;60387;49.994;14.660;2022-08-25T00:50:07;98052.91;;;20.30;70.92
71915;BME280;60387;49.994;14.660;2022-08-25T00:52:44;98053.63;;;20.27;70.74
71915;BME280;60387;49.994;14.660;2022-08-25T00:57:57;98049.09;;;20.19;70.45
71915;BME280;60387;49.994;14.660;2022-08-25T01:00:36;98048.56;;;20.14;70.49
71915;BME280;60387;49.994;14.660;2022-08-25T01:03:11;98048.13;;;20.12;70.44
71915;BME280;60387;49.994;14.660;2022-08-25T01:05:45;98042.16;;;20.10;70.21
71915;BME280;60387;49.994;14.660;2022-08-25T01:08:20;98042.75;;;20.03;70.33
71915;BME280;60387;49.994;14.660;2022-08-25T01:10:57;98041.78;;;19.96;70.20
71915;BME280;60387;49.994;14.660;2022-08-25T01:13:35;98042.84;;;19.91;70.23
71915;BME280;60387;49.994;14.660;2022-08-25T01:16:12;98039.09;;;19.84;70.23
71915;BME280;60387;49.994;14.660;2022-08-25T01:18:48;98035.47;;;19.80;70.24
71915;BME280;60387;49.994;14.660;2022-08-25T01:21:25;98036.19;;;19.77;70.31
71915;BME280;60387;49.994;14.660;2022-08-25T01:23:59;98025.34;;;19.69;70.21
71915;BME280;60387;49.994;14.660;2022-08-25T01:26:34;98035.47;;;19.65;70.17
71915;BME280;60387;49.994;14.660;2022-08-25T01:29:08;98029.06;;;19.61;70.18
71915;BME280;60387;49.994;14.660;2022-08-25T01:31:41;98028.16;;;19.57;70.22
71915;BME280;60387;49.994;14.660;2022-08-25T01:34:16;98029.31;;;19.56;70.33
71915;BME280;60387;49.994;14.660;2022-08-25T01:36:49;98024.78;;;19.48;70.21
71915;BME280;60387;49.994;14.660;2022-08-25T01:39:24;98039.66;;;19.47;70.22
71915;BME280;60387;49.994;14.660;2022-08-25T01:44:59;98029.53;;;19.35;70.22
71915;BME280;60387;49.994;14.660;2022-08-25T01:47:32;98032.19;;;19.32;70.52
71915;BME280;60387;49.994;14.660;2022-08-25T01:50:06;98028.06;;;19.26;70.74
71915;BME280;60387;49.994;14.660;2022-08-25T01:53:03;98035.88;;;19.24;70.59
71915;BME280;60387;49.994;14.660;2022-08-25T01:55:39;98037.22;;;19.18;70.41
71915;BME280;60387;49.994;14.660;2022-08-25T01:58:12;98037.94;;;19.15;70.47
71915;BME280;60387;49.994;14.660;2022-08-25T02:00:47;98030.84;;;19.14;70.50
71915;BME280;60387;49.994;14.660;2022-08-25T02:03:21;98032.69;;;19.10;70.52
71915;BME280;60387;49.994;14.660;2022-08-25T02:05:57;98034.63;;;19.09;70.49
71915;BME280;60387;49.994;14.660;2022-08-25T02:08:31;98032.13;;;19.04;70.44
71915;BME280;60387;49.994;14.660;2022-08-25T02:11:04;98040.25;;;19.01;70.12
71915;BME280;60387;49.994;14.660;2022-08-25T02:13:38;98031.13;;;18.97;71.09
71915;BME280;60387;49.994;14.660;2022-08-25T02:16:17;98034.22;;;18.95;70.74
71915;BME280;60387;49.994;14.660;2022-08-25T02:18:51;98037.66;;;18.92;70.80
71915;BME280;60387;49.994;14.660;2022-08-25T02:21:25;98043.84;;;18.89;70.71
71915;BME280;60387;49.994;14.660;2022-08-25T02:23:58;98031.59;;;18.87;70.66
71915;BME280;60387;49.994;14.660;2022-08-25T02:26:32;98027.84;;;18.79;70.96
71915;BME280;60387;49.994;14.660;2022-08-25T02:29:06;98031.41;;;18.80;70.80
71915;BME280;60387;49.994;14.660;2022-08-25T02:31:39;98030.47;;;18.76;70.93
71915;BME280;60387;49.994;14.660;2022-08-25T02:34:13;98039.06;;;18.74;71.08
71915;BME280;60387;49.994;14.660;2022-08-25T02:36:46;98031.06;;;18.69;71.04
71915;BME280;60387;49.994;14.660;2022-08-25T02:39:19;98028.56;;;18.64;70.87
71915;BME280;60387;49.994;14.660;2022-08-25T02:41:53;98030.16;;;18.65;70.95
71915;BME280;60387;49.994;14.660;2022-08-25T02:44:26;98030.84;;;18.62;71.17
71915;BME280;60387;49.994;14.660;2022-08-25T02:46:59;98020.56;;;18.59;70.89
71915;BME280;60387;49.994;14.660;2022-08-25T02:49:33;98026.06;;;18.59;71.00
71915;BME280;60387;49.994;14.660;2022-08-25T02:52:06;98021.63;;;18.55;70.54
71915;BME280;60387;49.994;14.660;2022-08-25T02:54:39;98034.63;;;18.58;70.95
71915;BME280;60387;49.994;14.660;2022-08-25T02:57:13;98030.19;;;18.53;71.13
71915;BME280;60387;49.994;14.660;2022-08-25T02:59:46;98025.84;;;18.52;71.00
71915;BME280;60387;49.994;14.660;2022-08-25T03:02:19;98021.38;;;18.48;71.02
71915;BME280;60387;49.994;14.660;2022-08-25T03:04:53;98027.31;;;18.50;70.82
71915;BME280;60387;49.994;14.660;2022-08-25T03:07:26;98017.16;;;18.50;70.77
71915;BME280;60387;49.994;14.660;2022-08-25T03:10:08;98019.09;;;18.50;70.81
71915;BME280;60387;49.994;14.660;2022-08-25T03:12:41;98029.16;;;18.46;71.16
71915;BME280;60387;49.994;14.660;2022-08-25T03:15:15;98027.09;;;18.43;71.18
71915;BME280;60387;49.994;14.660;2022-08-25T03:17:49;98026.75;;;18.44;71.01
71915;BME280;60387;49.994;14.660;2022-08-25T03:20:24;98014.19;;;18.43;70.98
71915;BME280;60387;49.994;14.660;2022-08-25T03:22:57;98025.50;;;18.42;71.28
71915;BME280;60387;49.994;14.660;2022-08-25T03:25:31;98021.97;;;18.41;71.47
71915;BME280;60387;49.994;14.660;2022-08-25T03:28:06;98026.31;;;18.42;71.29
71915;BME280;60387;49.994;14.660;2022-08-25T03:30:41;98010.88;;;18.38;71.20
71915;BME280;60387;49.994;14.660;2022-08-25T03:33:14;98017.28;;;18.42;71.69
71915;BME280;60387;49.994;14.660;2022-08-25T03:35:48;98015.66;;;18.41;71.30
71915;BME280;60387;49.994;14.660;2022-08-25T03:38:22;98010.53;;;18.39;71.34
71915;BME280;60387;49.994;14.660;2022-08-25T03:40:56;98016.25;;;18.34;71.55
71915;BME280;60387;49.994;14.660;2022-08-25T03:43:29;98014.78;;;18.37;71.54
71915;BME280;60387;49.994;14.660;2022-08-25T03:46:02;98026.88;;;18.36;71.34
71915;BME280;60387;49.994;14.660;2022-08-25T03:48:35;98026.19;;;18.39;71.42
71915;BME280;60387;49.994;14.660;2022-08-25T03:51:09;98021.50;;;18.39;72.18
71915;BME280;60387;49.994;14.660;2022-08-25T03:53:42;98020.59;;;18.35;71.68
71915;BME280;60387;49.994;14.660;2022-08-25T03:56:15;98018.63;;;18.36;71.76
71915;BME280;60387;49.994;14.660;2022-08-25T03:58:48;98019.44;;;18.36;71.54
71915;BME280;60387;49.994;14.660;2022-08-25T04:01:22;98022.19;;;18.36;71.63
71915;BME280;60387;49.994;14.660;2022-08-25T04:03:56;98019.91;;;18.38;71.88
71915;BME280;60387;49.994;14.660;2022-08-25T04:06:29;98024.59;;;18.38;71.83
71915;BME280;60387;49.994;14.660;2022-08-25T04:09:02;98023.00;;;18.37;71.55
71915;BME280;60387;49.994;14.660;2022-08-25T04:11:36;98019.13;;;18.38;71.49
71915;BME280;60387;49.994;14.660;2022-08-25T04:14:09;98014.78;;;18.37;71.87
71915;BME280;60387;49.994;14.660;2022-08-25T04:16:43;98012.47;;;18.39;71.63
71915;BME280;60387;49.994;14.660;2022-08-25T04:19:17;98006.53;;;18.37;71.63
71915;BME280;60387;49.994;14.660;2022-08-25T04:21:51;98011.34;;;18.40;71.68
71915;BME280;60387;49.994;14.660;2022-08-25T04:24:24;98007.00;;;18.39;71.72
71915;BME280;60387;49.994;14.660;2022-08-25T04:26:58;98005.50;;;18.41;71.66
71915;BME280;60387;49.994;14.660;2022-08-25T04:29:31;98006.75;;;18.44;71.70
71915;BME280;60387;49.994;14.660;2022-08-25T04:32:04;97999.00;;;18.46;71.60
71915;BME280;60387;49.994;14.660;2022-08-25T04:34:37;98001.38;;;18.47;71.74
71915;BME280;60387;49.994;14.660;2022-08-25T04:37:11;98001.47;;;18.51;71.89
71915;BME280;60387;49.994;14.660;2022-08-25T04:39:44;98000.09;;;18.57;71.82
71915;BME280;60387;49.994;14.660;2022-08-25T04:42:17;98004.00;;;18.56;71.63
71915;BME280;60387;49.994;14.660;2022-08-25T04:44:51;97997.09;;;18.62;71.54
71915;BME280;60387;49.994;14.660;2022-08-25T04:47:24;97994.47;;;18.65;71.66
71915;BME280;60387;49.994;14.660;2022-08-25T04:49:57;97987.94;;;18.70;71.68
71915;BME280;60387;49.994;14.660;2022-08-25T04:52:31;97990.28;;;18.95;71.25
71915;BME280;60387;49.994;14.660;2022-08-25T04:55:04;97995.38;;;19.09;70.76
71915;BME280;60387;49.994;14.660;2022-08-25T04:57:37;98005.91;;;19.19;70.71
71915;BME280;60387;49.994;14.660;2022-08-25T05:00:11;98004.50;;;19.25;70.74
71915;BME280;60387;49.994;14.660;2022-08-25T05:02:44;97997.16;;;19.29;70.61
71915;BME280;60387;49.994;14.660;2022-08-25T05:05:18;97991.41;;;19.34;70.24
71915;BME280;60387;49.994;14.660;2022-08-25T05:07:51;97990.78;;;19.40;70.35
71915;BME280;60387;49.994;14.660;2022-08-25T05:10:24;98002.31;;;19.46;70.62
71915;BME280;60387;49.994;14.660;2022-08-25T05:12:58;98002.88;;;19.51;70.23
71915;BME280;60387;49.994;14.660;2022-08-25T05:15:31;98005.28;;;19.53;70.29
71915;BME280;60387;49.994;14.660;2022-08-25T05:18:05;98013.81;;;19.63;70.14
71915;BME280;60387;49.994;14.660;2022-08-25T05:20:38;98007.69;;;19.70;70.32
71915;BME280;60387;49.994;14.660;2022-08-25T05:23:11;98009.75;;;19.73;70.07
71915;BME280;60387;49.994;14.660;2022-08-25T05:25:44;98015.50;;;19.83;70.03
71915;BME280;60387;49.994;14.660;2022-08-25T05:28:18;98018.88;;;19.92;70.13
71915;BME280;60387;49.994;14.660;2022-08-25T05:30:57;98032.03;;;19.98;69.85
71915;BME280;60387;49.994;14.660;2022-08-25T05:33:30;98020.31;;;20.01;70.06
71915;BME280;60387;49.994;14.660;2022-08-25T05:36:05;98019.81;;;20.11;69.92
71915;BME280;60387;49.994;14.660;2022-08-25T05:38:39;98025.19;;;20.23;70.28
71915;BME280;60387;49.994;14.660;2022-08-25T05:41:17;98015.09;;;20.27;69.64
71915;BME280;60387;49.994;14.660;2022-08-25T05:43:51;98018.47;;;20.36;70.02
71915;BME280;60387;49.994;14.660;2022-08-25T05:46:24;98018.19;;;20.41;70.88
71915;BME280;60387;49.994;14.660;2022-08-25T05:48:57;98020.13;;;20.41;69.95
71915;BME280;60387;49.994;14.660;2022-08-25T05:51:31;98017.75;;;20.39;69.97
71915;BME280;60387;49.994;14.660;2022-08-25T05:54:04;98007.28;;;20.45;70.15
71915;BME280;60387;49.994;14.660;2022-08-25T05:56:37;98019.25;;;20.52;70.38
71915;BME280;60387;49.994;14.660;2022-08-25T05:59:11;98013.44;;;20.57;70.01
71915;BME280;60387;49.994;14.660;2022-08-25T06:01:44;98000.84;;;20.56;70.22
71915;BME280;60387;49.994;14.660;2022-08-25T06:04:17;98016.75;;;20.82;70.24
71915;BME280;60387;49.994;14.660;2022-08-25T06:06:50;98020.22;;;20.94;69.97
71915;BME280;60387;49.994;14.660;2022-08-25T06:09:24;98012.53;;;21.03;69.90
71915;BME280;60387;49.994;14.660;2022-08-25T06:11:57;98010.81;;;21.14;69.78
71915;BME280;60387;49.994;14.660;2022-08-25T06:14:30;98014.13;;;21.23;69.48
71915;BME280;60387;49.994;14.660;2022-08-25T06:17:04;98021.81;;;21.33;69.46
71915;BME280;60387;49.994;14.660;2022-08-25T06:19:37;98023.28;;;21.46;69.19
71915;BME280;60387;49.994;14.660;2022-08-25T06:22:10;98018.88;;;21.64;69.67
71915;BME280;60387;49.994;14.660;2022-08-25T06:24:44;98022.50;;;21.87;69.90
71915;BME280;60387;49.994;14.660;2022-08-25T06:27:17;98016.63;;;22.11;69.21
71915;BME280;60387;49.994;14.660;2022-08-25T06:29:50;98019.72;;;22.32;69.19
71915;BME280;60387;49.994;14.660;2022-08-25T06:32:24;98027.63;;;22.56;68.96
71915;BME280;60387;49.994;14.660;2022-08-25T06:34:57;98029.53;;;22.78;68.65
71915;BME280;60387;49.994;14.660;2022-08-25T06:37:31;98028.72;;;23.04;68.19
71915;BME280;60387;49.994;14.660;2022-08-25T06:40:05;98034.28;;;23.33;67.91
71915;BME280;60387;49.994;14.660;2022-08-25T06:42:39;98024.72;;;23.60;67.73
71915;BME280;60387;49.994;14.660;2022-08-25T06:45:12;98019.91;;;23.90;67.30
71915;BME280;60387;49.994;14.660;2022-08-25T06:47:45;98019.78;;;24.19;67.27
71915;BME280;60387;49.994;14.660;2022-08-25T06:50:19;98022.41;;;24.49;66.86
71915;BME280;60387;49.994;14.660;2022-08-25T06:52:52;98028.25;;;24.84;66.48
71915;BME280;60387;49.994;14.660;2022-08-25T06:55:25;98037.13;;;25.14;65.15
71915;BME280;60387;49.994;14.660;2022-08-25T06:57:59;98027.34;;;25.37;65.11
71915;BME280;60387;49.994;14.660;2022-08-25T07:00:32;98029.81;;;25.60;65.03
71915;BME280;60387;49.994;14.660;2022-08-25T07:03:05;98020.34;;;25.78;64.64
71915;BME280;60387;49.994;14.660;2022-08-25T07:05:39;98038.69;;;26.00;64.11
71915;BME280;60387;49.994;14.660;2022-08-25T07:08:12;98037.91;;;26.14;62.85
71915;BME280;60387;49.994;14.660;2022-08-25T07:10:46;98026.81;;;26.35;63.10
71915;BME280;60387;49.994;14.660;2022-08-25T07:13:19;98036.78;;;26.60;62.10
71915;BME280;60387;49.994;14.660;2022-08-25T07:15:53;98021.63;;;26.79;61.41
71915;BME280;60387;49.994;14.660;2022-08-25T07:18:27;98031.53;;;26.97;61.77
71915;BME280;60387;49.994;14.660;2022-08-25T07:21:00;98041.06;;;27.07;60.27
71915;BME280;60387;49.994;14.660;2022-08-25T07:23:33;98039.44;;;27.13;60.98
71915;BME280;60387;49.994;14.660;2022-08-25T07:26:13;98031.91;;;27.10;61.21
71915;BME280;60387;49.994;14.660;2022-08-25T07:28:48;98034.69;;;27.10;60.08
71915;BME280;60387;49.994;14.660;2022-08-25T07:31:22;98034.31;;;27.04;61.46
71915;BME280;60387;49.994;14.660;2022-08-25T07:33:56;98024.78;;;27.09;61.67
71915;BME280;60387;49.994;14.660;2022-08-25T07:36:30;98023.53;;;27.30;61.40
71915;BME280;60387;49.994;14.660;2022-08-25T07:39:03;98030.19;;;27.57;60.67
71915;BME280;60387;49.994;14.660;2022-08-25T07:41:39;98026.50;;;27.81;59.35
71915;BME280;60387;49.994;14.660;2022-08-25T07:44:12;98016.44;;;28.01;59.92
71915;BME280;60387;49.994;14.660;2022-08-25T07:46:46;98019.00;;;28.29;58.40
71915;BME280;60387;49.994;14.660;2022-08-25T07:49:21;98020.38;;;28.58;58.69
71915;BME280;60387;49.994;14.660;2022-08-25T07:51:55;98016.94;;;28.84;57.51
71915;BME280;60387;49.994;14.660;2022-08-25T07:54:28;98021.16;;;29.06;56.38
71915;BME280;60387;49.994;14.660;2022-08-25T07:57:03;98022.22;;;29.19;55.48
71915;BME280;60387;49.994;14.660;2022-08-25T07:59:40;98015.72;;;29.29;54.39
71915;BME280;60387;49.994;14.660;2022-08-25T08:02:14;98012.00;;;29.39;54.98
71915;BME280;60387;49.994;14.660;2022-08-25T08:04:49;98009.47;;;29.48;55.83
71915;BME280;60387;49.994;14.660;2022-08-25T08:07:24;98010.41;;;29.72;56.79
71915;BME280;60387;49.994;14.660;2022-08-25T08:09:58;98017.91;;;30.05;55.30
71915;BME280;60387;49.994;14.660;2022-08-25T08:12:33;98004.44;;;30.26;53.88
71915;BME280;60387;49.994;14.660;2022-08-25T08:15:07;98010.09;;;30.46;53.44
71915;BME280;60387;49.994;14.660;2022-08-25T08:44:07;97990.66;;;31.46;49.26
71915;BME280;60387;49.994;14.660;2022-08-25T08:47:04;97995.88;;;31.64;48.30
71915;BME280;60387;49.994;14.660;2022-08-25T08:49:51;97998.91;;;31.73;49.29
71915;BME280;60387;49.994;14.660;2022-08-25T08:52:48;97991.88;;;32.00;49.34
71915;BME280;60387;49.994;14.660;2022-08-25T08:55:42;97996.72;;;32.16;48.27
71915;BME280;60387;49.994;14.660;2022-08-25T09:00:55;97988.50;;;32.09;46.68
71915;BME280;60387;49.994;14.660;2022-08-25T09:06:12;97991.56;;;31.79;46.54
71915;BME280;60387;49.994;14.660;2022-08-25T09:08:49;97989.78;;;31.88;47.03
71915;BME280;60387;49.994;14.660;2022-08-25T09:12:21;97981.88;;;31.83;46.09
71915;BME280;60387;49.994;14.660;2022-08-25T09:14:43;97990.97;;;31.71;46.60
71915;BME280;60387;49.994;14.660;2022-08-25T09:17:20;97978.22;;;31.67;46.56
71915;BME280;60387;49.994;14.660;2022-08-25T09:20:07;97981.78;;;31.67;47.00
71915;BME280;60387;49.994;14.660;2022-08-25T09:23:06;97972.22;;;31.65;45.64
71915;BME280;60387;49.994;14.660;2022-08-25T09:28:49;97962.53;;;30.92;45.26
71915;BME280;60387;49.994;14.660;2022-08-25T09:31:31;97967.25;;;30.75;47.79
71915;BME280;60387;49.994;14.660;2022-08-25T09:34:18;97955.94;;;30.82;47.28
71915;BME280;60387;49.994;14.660;2022-08-25T09:36:51;97950.06;;;30.96;47.80
71915;BME280;60387;49.994;14.660;2022-08-25T09:39:27;97959.41;;;31.09;45.52
71915;BME280;60387;49.994;14.660;2022-08-25T09:42:01;97959.22;;;31.20;46.62
71915;BME280;60387;49.994;14.660;2022-08-25T09:44:41;97952.53;;;31.33;45.38
71915;BME280;60387;49.994;14.660;2022-08-25T09:47:23;97952.63;;;31.29;45.83
71915;BME280;60387;49.994;14.660;2022-08-25T09:50:02;97945.69;;;31.14;43.95
71915;BME280;60387;49.994;14.660;2022-08-25T09:52:40;97940.16;;;30.72;44.69
71915;BME280;60387;49.994;14.660;2022-08-25T09:57:51;97930.66;;;30.20;46.26
71915;BME280;60387;49.994;14.660;2022-08-25T10:00:28;97939.41;;;30.22;46.68
71915;BME280;60387;49.994;14.660;2022-08-25T10:11:14;97923.41;;;29.73;47.16
71915;BME280;60387;49.994;14.660;2022-08-25T10:16:47;97917.13;;;29.66;47.59
71915;BME280;60387;49.994;14.660;2022-08-25T10:19:25;97920.25;;;29.71;47.50
71915;BME280;60387;49.994;14.660;2022-08-25T10:22:05;97915.59;;;29.88;47.24
71915;BME280;60387;49.994;14.660;2022-08-25T10:24:39;97913.28;;;30.09;47.01
71915;BME280;60387;49.994;14.660;2022-08-25T10:30:23;97895.69;;;30.55;47.61
71915;BME280;60387;49.994;14.660;2022-08-25T10:33:18;97910.38;;;31.01;45.30
71915;BME280;60387;49.994;14.660;2022-08-25T10:38:59;97919.66;;;31.37;44.66
71915;BME280;60387;49.994;14.660;2022-08-25T10:42:33;97908.88;;;31.35;44.62
71915;BME280;60387;49.994;14.660;2022-08-25T10:44:58;97898.09;;;31.14;45.65
71915;BME280;60387;49.994;14.660;2022-08-25T10:50:34;97901.44;;;30.90;45.91
71915;BME280;60387;49.994;14.660;2022-08-25T11:04:31;97893.88;;;30.45;46.37
71915;BME280;60387;49.994;14.660;2022-08-25T11:07:27;97894.38;;;30.40;46.83
71915;BME280;60387;49.994;14.660;2022-08-25T11:10:15;97886.25;;;30.45;45.98
71915;BME280;60387;49.994;14.660;2022-08-25T11:12:53;97878.97;;;30.51;46.51
71915;BME280;60387;49.994;14.660;2022-08-25T11:15:30;97870.94;;;30.53;46.43
71915;BME280;60387;49.994;14.660;2022-08-25T11:18:13;97873.66;;;30.57;46.84
71915;BME280;60387;49.994;14.660;2022-08-25T11:21:04;97875.81;;;30.49;45.99
71915;BME280;60387;49.994;14.660;2022-08-25T11:23:45;97888.81;;;30.59;46.37
71915;BME280;60387;49.994;14.660;2022-08-25T11:26:27;97872.16;;;30.75;46.14
71915;BME280;60387;49.994;14.660;2022-08-25T11:29:11;97873.50;;;30.87;44.93
71915;BME280;60387;49.994;14.660;2022-08-25T11:31:49;97868.47;;;30.98;45.02
71915;BME280;60387;49.994;14.660;2022-08-25T11:34:24;97869.56;;;31.23;45.22
71915;BME280;60387;49.994;14.660;2022-08-25T11:37:19;97871.03;;;31.63;44.38
71915;BME280;60387;49.994;14.660;2022-08-25T11:43:04;97864.94;;;32.16;43.17
71915;BME280;60387;49.994;14.660;2022-08-25T11:51:47;97859.47;;;32.85;41.65
71915;BME280;60387;49.994;14.660;2022-08-25T11:54:37;97866.09;;;32.79;41.47
71915;BME280;60387;49.994;14.660;2022-08-25T12:10:24;97842.88;;;31.34;42.91
71915;BME280;60387;49.994;14.660;2022-08-25T12:13:04;97838.78;;;31.39;43.77
71915;BME280;60387;49.994;14.660;2022-08-25T12:15:56;97835.81;;;31.46;43.52
71915;BME280;60387;49.994;14.660;2022-08-25T12:21:07;97823.03;;;31.29;43.74
71915;BME280;60387;49.994;14.660;2022-08-25T12:38:10;97807.28;;;31.35;43.10
71915;BME280;60387;49.994;14.660;2022-08-25T12:43:33;97800.34;;;31.75;43.25
71915;BME280;60387;49.994;14.660;2022-08-25T12:48:58;97783.03;;;32.24;41.95
71915;BME280;60387;49.994;14.660;2022-08-25T12:54:14;97792.94;;;32.13;41.54
71915;BME280;60387;49.994;14.660;2022-08-25T12:56:54;97782.13;;;31.83;41.71
71915;BME280;60387;49.994;14.660;2022-08-25T12:59:38;97779.63;;;31.53;43.08
71915;BME280;60387;49.994;14.660;2022-08-25T13:10:57;97766.50;;;31.34;43.81
71915;BME280;60387;49.994;14.660;2022-08-25T13:14:06;97767.47;;;31.91;42.16
71915;BME280;60387;49.994;14.660;2022-08-25T13:16:54;97775.13;;;32.19;42.51
71915;BME280;60387;49.994;14.660;2022-08-25T13:19:28;97763.66;;;32.30;41.25
71915;BME280;60387;49.994;14.660;2022-08-25T13:22:11;97765.41;;;32.24;41.59
71915;BME280;60387;49.994;14.660;2022-08-25T13:24:46;97758.94;;;32.27;41.33
71915;BME280;60387;49.994;14.660;2022-08-25T13:27:25;97769.16;;;32.33;41.88
71915;BME280;60387;49.994;14.660;2022-08-25T13:29:59;97757.03;;;32.36;40.67
71915;BME280;60387;49.994;14.660;2022-08-25T13:32:34;97767.03;;;32.37;40.42
71915;BME280;60387;49.994;14.660;2022-08-25T13:35:24;97749.06;;;32.22;40.70
71915;BME280;60387;49.994;14.660;2022-08-25T13:38:17;97763.25;;;31.99;40.79
71915;BME280;60387;49.994;14.660;2022-08-25T13:41:01;97750.69;;;31.75;41.57
71915;BME280;60387;49.994;14.660;2022-08-25T13:43:38;97752.22;;;31.60;41.33
71915;BME280;60387;49.994;14.660;2022-08-25T13:46:11;97746.38;;;31.55;41.20
71915;BME280;60387;49.994;14.660;2022-08-25T13:48:44;97734.66;;;31.44;41.92
71915;BME280;60387;49.994;14.660;2022-08-25T13:54:05;97731.25;;;31.36;42.95
71915;BME280;60387;49.994;14.660;2022-08-25T13:56:40;97740.94;;;31.48;43.25
71915;BME280;60387;49.994;14.660;2022-08-25T13:59:23;97728.34;;;31.72;42.49
71915;BME280;60387;49.994;14.660;2022-08-25T14:01:57;97730.50;;;31.96;42.72
71915;BME280;60387;49.994;14.660;2022-08-25T14:04:44;97742.56;;;32.09;40.88
71915;BME280;60387;49.994;14.660;2022-08-25T14:09:58;97735.38;;;32.08;40.70
71915;BME280;60387;49.994;14.660;2022-08-25T14:12:43;97726.03;;;31.99;40.42
71915;BME280;60387;49.994;14.660;2022-08-25T14:20:45;97716.03;;;31.98;38.83
71915;BME280;60387;49.994;14.660;2022-08-25T14:23:22;97710.09;;;31.96;39.88
71915;BME280;60387;49.994;14.660;2022-08-25T14:25:56;97710.84;;;31.84;39.73
71915;BME280;60387;49.994;14.660;2022-08-25T14:28:29;97715.41;;;31.78;40.60
71915;BME280;60387;49.994;14.660;2022-08-25T14:31:16;97689.28;;;31.65;40.91
71915;BME280;60387;49.994;14.660;2022-08-25T14:33:55;97706.28;;;31.74;40.77
71915;BME280;60387;49.994;14.660;2022-08-25T14:36:30;97712.94;;;31.80;40.47
71915;BME280;60387;49.994;14.660;2022-08-25T14:39:04;97711.69;;;31.81;41.19
71915;BME280;60387;49.994;14.660;2022-08-25T14:41:40;97700.75;;;31.86;40.87
71915;BME280;60387;49.994;14.660;2022-08-25T14:44:14;97691.22;;;31.84;40.85
71915;BME280;60387;49.994;14.660;2022-08-25T14:46:51;97696.91;;;31.80;41.50
71915;BME280;60387;49.994;14.660;2022-08-25T14:49:28;97702.44;;;31.84;41.03
71915;BME280;60387;49.994;14.660;2022-08-25T14:52:15;97700.25;;;31.75;41.29
71915;BME280;60387;49.994;14.660;2022-08-25T14:54:50;97694.81;;;31.68;41.20
71915;BME280;60387;49.994;14.660;2022-08-25T14:57:24;97702.84;;;31.66;41.74
71915;BME280;60387;49.994;14.660;2022-08-25T14:59:58;97684.06;;;31.51;42.00
71915;BME280;60387;49.994;14.660;2022-08-25T15:02:34;97689.59;;;31.54;41.58
71915;BME280;60387;49.994;14.660;2022-08-25T15:05:11;97689.66;;;31.51;41.47
71915;BME280;60387;49.994;14.660;2022-08-25T15:07:47;97673.84;;;31.44;41.78
71915;BME280;60387;49.994;14.660;2022-08-25T15:10:20;97686.53;;;31.49;42.01
71915;BME280;60387;49.994;14.660;2022-08-25T15:12:54;97679.31;;;31.48;42.00
71915;BME280;60387;49.994;14.660;2022-08-25T15:15:27;97683.44;;;31.43;42.27
71915;BME280;60387;49.994;14.660;2022-08-25T15:18:00;97680.38;;;31.38;42.18
71915;BME280;60387;49.994;14.660;2022-08-25T15:20:34;97680.72;;;31.40;42.43
71915;BME280;60387;49.994;14.660;2022-08-25T15:23:07;97676.03;;;31.37;42.00
71915;BME280;60387;49.994;14.660;2022-08-25T15:25:41;97673.78;;;31.32;42.38
71915;BME280;60387;49.994;14.660;2022-08-25T15:28:15;97675.84;;;31.28;42.26
71915;BME280;60387;49.994;14.660;2022-08-25T15:30:49;97668.00;;;31.23;42.27
71915;BME280;60387;49.994;14.660;2022-08-25T15:33:22;97671.22;;;31.22;42.38
71915;BME280;60387;49.994;14.660;2022-08-25T15:35:56;97660.25;;;31.11;42.48
71915;BME280;60387;49.994;14.660;2022-08-25T15:38:29;97674.03;;;31.22;42.78
71915;BME280;60387;49.994;14.660;2022-08-25T15:41:03;97682.16;;;31.32;42.20
71915;BME280;60387;49.994;14.660;2022-08-25T15:43:37;97663.69;;;31.34;42.11
71915;BME280;60387;49.994;14.660;2022-08-25T15:46:12;97664.13;;;31.49;42.08
71915;BME280;60387;49.994;14.660;2022-08-25T15:48:48;97648.53;;;31.48;41.87
71915;BME280;60387;49.994;14.660;2022-08-25T15:51:21;97655.16;;;31.54;41.72
71915;BME280;60387;49.994;14.660;2022-08-25T15:53:56;97667.50;;;31.56;41.33
71915;BME280;60387;49.994;14.660;2022-08-25T15:56:29;97672.63;;;31.29;41.71
71915;BME280;60387;49.994;14.660;2022-08-25T15:59:03;97669.19;;;31.06;42.60